Weather observations for the past three days for
Wilmington, Airborne Airpark Airport
Metric (Imperial)
Date Time (edt) Wind (kph) Vis. (km) Weather Sky Cond. Temperature (ºC) Relative Humidity Wind Chill (°C) Heat Index (°C) Pressure Precipitation (cm)
Air Dwpt 6 hour altimeter (cm) sea level (mb) 1 hr 3 hr 6 hr
Max. Min.
04 21:54 S 15 16.09 Fair CLR 18.3 10 59% 75.49 1006.2
04 20:54 SW 19 16.09 A Few Clouds FEW100 20 9.4 51% 75.44 1005.7
04 19:54 SW 28 G 56 16.09 Fair CLR 21.7 9.4 22.2 18.3 46% 75.44 1005.8
04 18:54 SW 19 16.09 Fair CLR 22.2 11.7 52% 75.49 1006.4
04 17:54 SW 22 G 37 16.09 Fair CLR 21.7 10.6 49% 75.54 1007.0
04 16:54 SW 31 G 41 16.09 Fair CLR 21.7 11.1 51% 75.59 1007.9
04 15:54 SW 17 16.09 Partly Cloudy SCT095 SCT120 19.4 11.1 59% 75.67 1009.0
04 14:54 SW 28 G 48 16.09 Light Rain BKN100 18.3 11.7 66% 75.67 1009.1
04 13:54 SW 26 G 39 16.09 Fair CLR 18.9 10 20 10.6 56% 75.64 1008.7
04 12:54 SW 26 16.09 Fair CLR 17.8 9.4 58% 75.69 1009.3
04 11:54 SW 24 G 33 16.09 A Few Clouds FEW110 17.2 9.4 60% 75.69 1009.5
04 10:54 SW 28 16.09 Fair CLR 16.1 8.9 63% 75.72 1009.8
04 09:54 SW 26 G 41 16.09 Fair CLR 13.9 7.2 64% 75.77 1010.6
04 08:54 SW 22 G 39 16.09 A Few Clouds FEW080 12.2 6.1 67% 75.77 1010.8
04 07:54 S 17 16.09 Fair CLR 10.6 5 10.6 8.3 69% 75.77 1010.8
04 06:54 S 13 16.09 Fair CLR 8.9 3.9 71% 7 75.77 1011.0
04 05:54 S 15 16.09 Fair CLR 8.9 3.3 68% 7 75.79 1011.2
04 04:54 SW 15 16.09 Fair CLR 9.4 3.3 66% 7 75.82 1011.4
04 03:54 S 20 16.09 Fair CLR 9.4 3.3 66% 7 75.84 1011.5
04 02:54 S 17 16.09 Fair CLR 9.4 2.8 64% 7 75.87 1012.2
04 01:54 S 15 16.09 Partly Cloudy SCT095 10 3.3 11.7 9.4 63% 8 75.95 1013.0
04 00:54 S 15 16.09 Mostly Cloudy BKN110 10.6 3.3 61% 75.95 1013.2
03 23:54 S 15 16.09 Overcast FEW080 OVC110 11.1 3.3 59% 76 1013.9
03 22:54 S 11 16.09 Mostly Cloudy SCT080 BKN100 11.1 2.8 57% 76.05 1014.5
03 21:54 SE 6 16.09 Overcast BKN070 OVC090 10.6 5 69% 76.02 1014.5
03 20:54 E 7 16.09 Overcast OVC070 10.6 4.4 66% 76.05 1014.8
03 19:54 SE 11 16.09 A Few Clouds FEW080 FEW110 11.1 3.9 16.1 10.6 61% 76 1014.5
03 18:54 E 7 16.09 Overcast BKN095 OVC120 11.1 3.3 59% 76.07 1015.9
03 17:54 NE 13 16.09 Overcast FEW039 FEW060 OVC090 11.1 2.8 57% 76.12 1016.4
03 16:54 SW 24 16.09 Overcast FEW070 OVC100 13.9 -0.6 37% 76.15 1016.7
03 15:54 W 22 G 43 16.09 Fair CLR 15.6 0 35% 76.17 1016.6
03 14:54 SW 28 G 41 16.09 Partly Cloudy SCT120 15 0 36% 76.25 1017.9
03 13:54 SW 17 16.09 Fair CLR 14.4 -0.6 14.4 3.3 36% 76.3 1018.7
03 12:54 SW 26 G 39 16.09 Fair CLR 13.9 -0.6 37% 76.38 1019.7
03 11:54 SW 24 G 35 16.09 Fair CLR 12.8 0.6 44% 76.45 1020.6
03 10:54 SW 20 16.09 Fair CLR 11.7 -0.6 43% 76.43 1020.5
03 09:54 W 22 16.09 Fair CLR 10 -0.6 48% 7 76.45 1020.6
03 08:54 SW 17 16.09 Fair CLR 7.2 0 61% 5 76.48 1021.0
03 07:54 SW 9 16.09 Fair CLR 2.8 0 2.8 0 82% 1 76.45 1021.0
03 06:54 SW 7 16.09 Fair CLR 1.1 -1.7 82% -1 76.4 1020.3
03 05:54 SW 9 16.09 Fair CLR 0.6 -1.7 85% -2 76.38 1019.8
03 04:54 SW 7 16.09 Fair CLR 1.1 -1.1 85% -1 76.35 1019.7
03 03:54 SW 7 16.09 Fair CLR 0.6 -1.1 89% -1 76.35 1019.7
03 02:54 SW 7 16.09 Fair CLR 0.6 -0.6 92% -1 76.35 1019.7
03 01:54 Calm 16.09 Fair CLR 0.6 0 7.2 0.6 96% 76.38 1020.0
03 00:54 Calm 16.09 Fair CLR 1.7 0 89% 76.4 1020.1
02 23:54 Calm 16.09 Fair CLR 2.2 0 86% 76.4 1020.1
02 22:54 Calm 16.09 Fair CLR 2.8 0 82% 76.4 1020.2
02 21:54 N 6 16.09 Fair CLR 5.6 -2.2 58% 76.38 1019.9
02 20:54 N 11 16.09 Mostly Cloudy BKN075 6.7 -2.8 51% 5 76.35 1019.5
02 19:54 N 13 16.09 Mostly Cloudy FEW060 BKN075 7.2 -2.8 10.6 7.2 49% 5 76.3 1019.0
02 18:54 N 20 16.09 Overcast OVC080 8.9 -3.3 42% 6 76.28 1018.7
02 17:54 NW 20 16.09 Overcast OVC075 9.4 -3.3 41% 7 76.28 1018.3
02 16:54 N 20 G 30 16.09 Overcast OVC070 10 -3.3 39% 8 76.25 1018.1
02 15:54 NW 19 16.09 Partly Cloudy SCT065 9.4 -3.9 39% 7 76.28 1018.4
02 14:54 N 24 G 37 16.09 Mostly Cloudy BKN060 10 -3.3 39% 7 76.3 1018.6
02 13:54 N 24 16.09 A Few Clouds FEW060 10 -3.3 10.6 3.9 39% 7 76.3 1018.7
02 12:54 NW 20 G 31 16.09 Mostly Cloudy BKN055 9.4 -2.8 43% 7 76.33 1019.0
02 11:54 N 15 16.09 Fair CLR 8.9 -2.8 44% 7 76.38 1019.5
02 10:54 NW 13 16.09 Fair CLR 8.3 -2.8 46% 6 76.38 1019.5
02 09:54 N 17 16.09 Fair CLR 6.7 -3.3 49% 4 76.35 1019.5
02 08:54 N 15 16.09 Fair CLR 5 -2.8 57% 2 76.35 1019.6
02 07:54 N 11 16.09 Fair CLR 3.9 -2.2 5.6 2.8 65% 1 76.33 1018.9
02 06:54 N 11 16.09 Mostly Cloudy BKN070 3.3 -1.1 73% 1 76.3 1018.8
02 05:54 N 6 16.09 Overcast OVC070 3.9 0 76% 76.3 1018.7
02 04:54 N 6 16.09 A Few Clouds FEW055 FEW075 3.3 -0.6 76% 76.3 1018.8
02 03:54 N 7 16.09 Fair CLR 2.8 -1.1 76% 1 76.28 1018.3
02 02:54 N 9 16.09 Fair CLR 3.9 0 76% 2 76.28 1018.4
02 01:54 N 13 16.09 Overcast OVC080 5.6 0.6 10 5.6 71% 3 76.33 1018.6
02 00:54 NW 13 16.09 Fair CLR 5.6 1.1 73% 3 76.33 1018.9
01 23:54 NW 6 16.09 Fair CLR 6.1 0.6 68% 76.33 1018.9
01 22:54 Calm 16.09 Fair CLR 7.2 0.6 63% 76.33 1018.7
Date Time (edt) Wind (kph) Vis. (km) Weather Sky Cond. Air Dwpt Max. Min. Relative Humidity Wind Chill (°C) Heat Index (°C) altimeter (cm) sea level (mb) 1 hr 3 hr 6 hr
6 hour
Temperature (ºC) Pressure Precipitation (cm)